Afanasiy Matyushenko — EOIA — position and weather

sailwx.info

Track history (hours):
 
Tides and Currents Weather Stations Pressure Air Temp Water Temp Dewpoint Dewpoint Depression Visibility Wind Speed Wind Dir Waves Ship Positions

Afanasiy Matyushenko

Last reported at 2018-Aug-13 23:00 UTC. Time now 2018-Aug-16 20:18 UTC.
Position N 43°58' E 032°53'.

Length 114 m; draft 4 m.

Type: Cargo ship. MMSI: 272076000.

Date/timePositionNaut miles runAvg speedWind from/ knotsBaromVisibWave heightAir tempDewpointWater temp
2018-Aug-13 23:00N 43°58' E 032°53'4 7.2
2018-Aug-13 22:30N 44°01' E 032°50'4 7.1
2018-Aug-13 21:58N 44°04' E 032°46'4 7.2
2018-Aug-13 21:28N 44°07' E 032°43'4 7.2
2018-Aug-13 20:58N 44°09' E 032°39'3 7.2
2018-Aug-13 20:29N 44°11' E 032°35'4 7.2
2018-Aug-13 20:00N 44°14' E 032°32'7 7.5
2018-Aug-13 19:06N 44°18' E 032°25'1 7.5
2018-Aug-13 19:00N 44°19' E 032°24'4 7.5
2018-Aug-13 18:25N 44°22' E 032°20'3 7.4
2018-Aug-13 17:59N 44°24' E 032°17'4 7.4
2018-Aug-13 17:31N 44°26' E 032°13'5 7.6
2018-Aug-13 16:54N 44°29' E 032°08'3 7.5
2018-Aug-13 16:30N 44°31' E 032°05'32 7.8
2018-Aug-13 12:24N 44°53' E 031°32'3 7.5
2018-Aug-13 12:00N 44°55' E 031°29'4 7.4
2018-Aug-13 11:30N 44°58' E 031°25'3 7.0
2018-Aug-13 11:00N 44°60' E 031°21'4 7.3
2018-Aug-13 10:29N 45°04' E 031°20'4 7.3
2018-Aug-13 10:00N 45°07' E 031°19'4 7.4
2018-Aug-13 09:30N 45°11' E 031°18'5 7.5
2018-Aug-13 08:50N 45°16' E 031°17'3 7.6
2018-Aug-13 08:30N 45°18' E 031°17'4 7.7
2018-Aug-13 07:59N 45°22' E 031°15'4 7.7
2018-Aug-13 07:30N 45°26' E 031°14'4 7.6
2018-Aug-13 07:00N 45°29' E 031°13'4 7.6
2018-Aug-13 06:27N 45°33' E 031°12'3 7.6
2018-Aug-13 06:00N 45°37' E 031°11'4 7.6
2018-Aug-13 05:30N 45°41' E 031°11'4 7.4
2018-Aug-13 05:00N 45°44' E 031°11'4 7.5
2018-Aug-13 04:30N 45°48' E 031°10'4 7.7
2018-Aug-13 04:00N 45°52' E 031°09'4 7.5
2018-Aug-13 03:30N 45°56' E 031°08'11 7.6
2018-Aug-13 02:02N 46°07' E 031°06'1 7.7
2018-Aug-13 01:56N 46°07' E 031°05'3 7.7
2018-Aug-13 01:30N 46°09' E 031°02'4 7.7
2018-Aug-13 01:00N 46°12' E 030°58'4 7.6
2018-Aug-13 00:30N 46°15' E 030°54'4 7.4
2018-Aug-13 00:00N 46°19' E 030°55'4 7.4
2018-Aug-12 23:30N 46°22' E 030°55'4 7.4
2018-Aug-12 23:00N 46°26' E 030°55'4 7.3
2018-Aug-12 22:30N 46°30' E 030°55'3 6.3
2018-Aug-12 22:00N 46°33' E 030°57'3 6.8
2018-Aug-12 21:30N 46°34' E 031°01'3 5.5
2018-Aug-12 21:01N 46°35' E 031°05'3 5.9
2018-Aug-12 20:30N 46°35' E 031°09'3 6.4
2018-Aug-12 20:00N 46°35' E 031°14'3 6.2
2018-Aug-12 19:30N 46°35' E 031°18'3 6.3
2018-Aug-12 19:00N 46°35' E 031°23'3 6.2
2018-Aug-12 18:30N 46°35' E 031°27'3 5.5
2018-Aug-12 18:00N 46°35' E 031°31'3 5.8
2018-Aug-12 17:30N 46°35' E 031°35'3 6.3
2018-Aug-12 17:00N 46°36' E 031°40'3 6.6
2018-Aug-12 16:30N 46°36' E 031°45'3 6.5
2018-Aug-12 16:00N 46°35' E 031°49'3 6.8
2018-Aug-12 15:30N 46°34' E 031°54'4 7.1
2018-Aug-12 15:00N 46°33' E 031°59'4 7.1
2018-Aug-12 14:30N 46°32' E 032°04'144 4.4
2018-Aug-11 06:03N 47°43' E 035°08'0 7.4
2018-Aug-11 06:00N 47°43' E 035°08'3 6.6
2018-Aug-11 05:30N 47°46' E 035°09'3 5.9
2018-Aug-11 05:00N 47°49' E 035°09'3 6.0
2018-Aug-11 04:30N 47°51' E 035°05'1 1.7
2018-Aug-11 03:52N 47°52' E 035°06'0 0.0
2018-Aug-11 03:30N 47°52' E 035°06'1 1.7
2018-Aug-11 03:00N 47°53' E 035°06'1 1.4
2018-Aug-11 02:29N 47°53' E 035°07'0 0.0
2018-Aug-11 01:59N 47°53' E 035°07'0 0.0
2018-Aug-11 01:29N 47°53' E 035°07'0 0.0
2018-Aug-11 00:59N 47°53' E 035°07'0 0.0
2018-Aug-11 00:29N 47°53' E 035°07'0 0.0
2018-Aug-10 23:59N 47°53' E 035°07'0 0.0
2018-Aug-10 23:29N 47°53' E 035°07'0 0.0
2018-Aug-10 22:59N 47°53' E 035°07'0 0.0
2018-Aug-10 22:29N 47°53' E 035°07'0 0.0
2018-Aug-10 21:59N 47°53' E 035°07'0 0.0
2018-Aug-10 21:29N 47°53' E 035°07'0 0.0
2018-Aug-10 20:53N 47°53' E 035°07'0 0.0
2018-Aug-10 20:23N 47°53' E 035°07'0 0.0
2018-Aug-10 19:59N 47°53' E 035°07'0 0.0
2018-Aug-10 19:29N 47°53' E 035°07'0 0.0
2018-Aug-10 18:59N 47°53' E 035°07'0 0.0
2018-Aug-10 18:29N 47°53' E 035°07'0 0.0
2018-Aug-10 17:53N 47°53' E 035°07'0 0.0
2018-Aug-10 17:29N 47°53' E 035°07'0 0.0
2018-Aug-10 16:59N 47°53' E 035°07'0 0.0
2018-Aug-10 16:29N 47°53' E 035°07'0 0.0
2018-Aug-10 15:59N 47°53' E 035°07'0 0.0
2018-Aug-10 15:29N 47°53' E 035°07'0 0.0
2018-Aug-10 14:59N 47°53' E 035°07'0 0.0
2018-Aug-10 14:29N 47°53' E 035°07'0 0.0
2018-Aug-10 13:59N 47°53' E 035°07'0 0.0
2018-Aug-10 13:29N 47°53' E 035°07'0 0.0
2018-Aug-10 12:59N 47°53' E 035°07'0 0.0
2018-Aug-10 12:29N 47°53' E 035°07'0 0.0
2018-Aug-10 11:59N 47°53' E 035°07'0 0.0
2018-Aug-10 11:23N 47°53' E 035°07'0 0.0
2018-Aug-10 10:53N 47°53' E 035°07'0 0.0
2018-Aug-10 10:29N 47°53' E 035°07'0 0.0
2018-Aug-10 09:59N 47°53' E 035°07'0 0.0
2018-Aug-10 09:29N 47°53' E 035°07'0 0.0
2018-Aug-10 08:59N 47°53' E 035°07'0 0.0
2018-Aug-10 08:29N 47°53' E 035°07'0 0.0
2018-Aug-10 07:59N 47°53' E 035°07'0 0.0
2018-Aug-10 07:29N 47°53' E 035°07'0 0.0
2018-Aug-10 06:59N 47°53' E 035°07'0 0.0
2018-Aug-10 06:29N 47°53' E 035°07'0 0.0
2018-Aug-10 05:59N 47°53' E 035°07'0 0.0
2018-Aug-10 05:29N 47°53' E 035°07'0 0.0
2018-Aug-10 04:59N 47°53' E 035°07'0 0.0
2018-Aug-10 04:29N 47°53' E 035°07'0 0.0
2018-Aug-10 03:59N 47°53' E 035°07'0 0.0
2018-Aug-10 03:29N 47°53' E 035°07'0 0.0
2018-Aug-10 02:59N 47°53' E 035°07'0 0.0
2018-Aug-10 02:23N 47°53' E 035°07'0 0.0
2018-Aug-10 01:59N 47°53' E 035°07'0 0.0
2018-Aug-10 01:29N 47°53' E 035°07'0 0.0
2018-Aug-10 00:59N 47°53' E 035°07'0 0.0
2018-Aug-10 00:29N 47°53' E 035°07'0 0.0
2018-Aug-09 23:53N 47°53' E 035°07'0 0.0
2018-Aug-09 23:29N 47°53' E 035°07'0 0.0
2018-Aug-09 22:59N 47°53' E 035°07'0 0.0
2018-Aug-09 22:29N 47°53' E 035°07'0 0.0
2018-Aug-09 21:59N 47°53' E 035°07'0 0.0
2018-Aug-09 21:23N 47°53' E 035°07'0 0.0
2018-Aug-09 20:59N 47°53' E 035°07'0 0.0
2018-Aug-09 20:29N 47°53' E 035°07'0 0.0
2018-Aug-09 19:59N 47°53' E 035°07'0 0.0
2018-Aug-09 19:29N 47°53' E 035°07'0 0.0
2018-Aug-09 18:59N 47°53' E 035°07'0 0.0
2018-Aug-09 18:29N 47°53' E 035°07'0 0.0
2018-Aug-09 17:59N 47°53' E 035°07'0 0.0
2018-Aug-09 17:29N 47°53' E 035°07'0 0.0
2018-Aug-09 16:59N 47°53' E 035°07'0 0.0
2018-Aug-09 16:29N 47°53' E 035°07'0 0.0
2018-Aug-09 15:59N 47°53' E 035°07'0 0.0
2018-Aug-09 15:29N 47°53' E 035°07'0 0.0
2018-Aug-09 14:53N 47°53' E 035°07'0 0.0
2018-Aug-09 14:29N 47°53' E 035°07'0 0.0
2018-Aug-09 13:59N 47°53' E 035°07'0 0.0
2018-Aug-09 13:29N 47°53' E 035°07'0 0.0
2018-Aug-09 12:53N 47°53' E 035°07'0 0.0
2018-Aug-09 12:29N 47°53' E 035°07'0 0.0
2018-Aug-09 11:59N 47°53' E 035°07'0 0.0
2018-Aug-09 11:29N 47°53' E 035°07'0 0.0
2018-Aug-09 10:59N 47°53' E 035°07'0 0.0
2018-Aug-09 10:29N 47°53' E 035°07'0 0.0
2018-Aug-09 09:59N 47°53' E 035°07'0 0.0
2018-Aug-09 09:29N 47°53' E 035°07'0 0.0
2018-Aug-09 08:53N 47°53' E 035°07'0 0.0
2018-Aug-09 08:29N 47°53' E 035°07'0 0.0
2018-Aug-09 07:59N 47°53' E 035°07'0 0.0
2018-Aug-09 07:29N 47°53' E 035°07'0 0.0
2018-Aug-09 06:59N 47°53' E 035°07'0 0.0
2018-Aug-09 06:29N 47°53' E 035°07'0 0.0
2018-Aug-09 05:59N 47°53' E 035°07'0 0.0
2018-Aug-09 05:29N 47°53' E 035°07'0 0.0
2018-Aug-09 04:59N 47°53' E 035°07'0 0.0
2018-Aug-09 04:29N 47°53' E 035°07'0 0.2
2018-Aug-09 03:59N 47°53' E 035°07'0 0.0
2018-Aug-09 03:29N 47°53' E 035°07'0 0.0
2018-Aug-09 02:59N 47°53' E 035°07'0 0.0
2018-Aug-09 02:29N 47°53' E 035°07'0 0.0
2018-Aug-09 01:59N 47°53' E 035°07'0 0.0
2018-Aug-09 01:29N 47°53' E 035°07'0 0.0
2018-Aug-09 00:59N 47°53' E 035°07'0 0.0
2018-Aug-09 00:29N 47°53' E 035°07'0 0.0
2018-Aug-08 23:59N 47°53' E 035°07'0 0.0
2018-Aug-08 23:29N 47°53' E 035°07'0 0.0
2018-Aug-08 22:59N 47°53' E 035°07'0 0.0
2018-Aug-08 22:29N 47°53' E 035°07'0 0.0
2018-Aug-08 21:59N 47°53' E 035°07'0 0.0
2018-Aug-08 21:29N 47°53' E 035°07'0 0.0
2018-Aug-08 20:59N 47°53' E 035°07'0 0.0
2018-Aug-08 20:29N 47°53' E 035°07'0 0.0
2018-Aug-08 19:53N 47°53' E 035°07'0 0.0
2018-Aug-08 19:29N 47°53' E 035°07'0 0.0
2018-Aug-08 18:59N 47°53' E 035°07'0 0.0
2018-Aug-08 18:29N 47°53' E 035°07'0 0.0
2018-Aug-08 17:59N 47°53' E 035°07'0 0.0
2018-Aug-08 17:31N 47°53' E 035°07'0 0.0
2018-Aug-08 17:00N 47°53' E 035°07'0 0.0
2018-Aug-08 16:31N 47°53' E 035°07'1 2.4
2018-Aug-08 16:00N 47°52' E 035°06'0 0.0
2018-Aug-08 15:30N 47°52' E 035°06'0 0.4
2018-Aug-08 14:59N 47°52' E 035°05'2 4.1
2018-Aug-08 14:31N 47°50' E 035°06'2 4.8
2018-Aug-08 14:01N 47°48' E 035°09'0 0.1
2018-Aug-08 13:10N 47°48' E 035°09'0 0.0
2018-Aug-08 12:58N 47°48' E 035°09'0 0.0
2018-Aug-08 12:28N 47°48' E 035°09'0 0.0
2018-Aug-08 12:00N 47°48' E 035°09'0 0.0
2018-Aug-08 11:30N 47°48' E 035°09'0 0.0
2018-Aug-08 11:00N 47°48' E 035°09'0 0.0
2018-Aug-08 10:30N 47°48' E 035°09'0 0.0
2018-Aug-08 10:00N 47°48' E 035°09'0 0.0
2018-Aug-08 09:30N 47°48' E 035°09'0 0.0
2018-Aug-08 09:00N 47°48' E 035°09'0 0.0
2018-Aug-08 08:30N 47°48' E 035°09'0 0.0
2018-Aug-08 08:00N 47°48' E 035°09'0 0.0
2018-Aug-08 07:30N 47°48' E 035°09'0 0.0
2018-Aug-08 07:00N 47°48' E 035°09'2 3.2
2018-Aug-08 06:30N 47°47' E 035°09'4 6.7
2018-Aug-08 05:58N 47°43' E 035°09'137 4.1
2018-Aug-06 20:59N 46°33' E 032°16'2 5.1
2018-Aug-06 20:30N 46°33' E 032°13'2 3.8
2018-Aug-06 20:00N 46°32' E 032°10'2 4.1
2018-Aug-06 19:30N 46°32' E 032°07'2 4.8
2018-Aug-06 19:00N 46°32' E 032°04'4 7.1
2018-Aug-06 18:30N 46°33' E 031°59'4 7.6
2018-Aug-06 18:00N 46°34' E 031°54'4 7.5
2018-Aug-06 17:30N 46°35' E 031°48'4 7.6
2018-Aug-06 17:00N 46°36' E 031°43'4 7.6
2018-Aug-06 16:30N 46°35' E 031°37'4 7.7
2018-Aug-06 16:00N 46°35' E 031°32'4 6.4
2018-Aug-06 15:27N 46°35' E 031°27'4 7.8
2018-Aug-06 14:59N 46°35' E 031°22'4 8.2
2018-Aug-06 14:30N 46°35' E 031°16'4 8.4
2018-Aug-06 14:00N 46°35' E 031°10'4 8.4
2018-Aug-06 13:30N 46°34' E 031°04'2 4.8
2018-Aug-06 13:00N 46°33' E 031°01'3 5.5
2018-Aug-06 12:30N 46°33' E 030°57'3 6.7
2018-Aug-06 12:00N 46°29' E 030°57'3 6.4
2018-Aug-06 11:30N 46°26' E 030°57'3 6.4
2018-Aug-06 11:00N 46°23' E 030°57'4 7.2
2018-Aug-06 10:30N 46°19' E 030°57'3 6.9
2018-Aug-06 10:00N 46°16' E 030°59'4 7.3
2018-Aug-06 09:30N 46°13' E 031°02'4 7.2
2018-Aug-06 09:00N 46°11' E 031°06'15 7.1
2018-Aug-06 06:49N 45°55' E 031°02'3 7.8
2018-Aug-06 06:27N 45°53' E 031°01'4 7.5
2018-Aug-06 05:57N 45°49' E 030°60'6 7.8
2018-Aug-06 05:10N 45°43' E 030°57'1 8.0
2018-Aug-06 04:59N 45°42' E 030°57'4 8.1
2018-Aug-06 04:30N 45°38' E 030°55'5 8.0
2018-Aug-06 03:52N 45°33' E 030°53'3 7.8
2018-Aug-06 03:30N 45°30' E 030°52'4 8.0
2018-Aug-06 03:00N 45°27' E 030°50'4 8.0
2018-Aug-06 02:30N 45°23' E 030°49'4 8.0
2018-Aug-06 02:00N 45°19' E 030°47'4 8.0
2018-Aug-06 01:30N 45°15' E 030°46'4 7.8
2018-Aug-06 01:00N 45°11' E 030°44'4 7.9
2018-Aug-06 00:30N 45°07' E 030°43'4 8.0
2018-Aug-06 00:00N 45°04' E 030°41'4 7.8
2018-Aug-05 23:29N 44°60' E 030°39'4 7.9
2018-Aug-05 23:00N 44°56' E 030°38'4 7.9
2018-Aug-05 22:30N 44°52' E 030°36'4 8.0
2018-Aug-05 22:00N 44°48' E 030°35'4 8.0
2018-Aug-05 21:30N 44°45' E 030°33'4 8.0
2018-Aug-05 21:00N 44°41' E 030°32'4 8.0
2018-Aug-05 20:30N 44°37' E 030°30'4 7.9
2018-Aug-05 20:00N 44°33' E 030°29'4 7.9
2018-Aug-05 19:30N 44°29' E 030°27'4 7.8
2018-Aug-05 19:00N 44°26' E 030°26'4 8.0
2018-Aug-05 18:30N 44°22' E 030°24'4 8.0
2018-Aug-05 18:00N 44°18' E 030°23'4 7.9
2018-Aug-05 17:30N 44°14' E 030°21'4 7.8
2018-Aug-05 17:00N 44°10' E 030°20'4 7.8
2018-Aug-05 16:30N 44°07' E 030°18'4 7.7
2018-Aug-05 16:00N 44°03' E 030°17'4 7.6
2018-Aug-05 15:30N 43°59' E 030°15'4 7.5
2018-Aug-05 14:59N 43°55' E 030°14'4 7.4
2018-Aug-05 14:30N 43°52' E 030°12'7 7.4
2018-Aug-05 13:30N 43°45' E 030°10'4 7.4
2018-Aug-05 13:00N 43°41' E 030°08'4 7.4
2018-Aug-05 12:30N 43°38' E 030°07'4 7.4
2018-Aug-05 12:00N 43°34' E 030°05'4 7.4
2018-Aug-05 11:30N 43°31' E 030°04'4 7.5
2018-Aug-05 11:00N 43°27' E 030°03'4 7.5
2018-Aug-05 10:28N 43°23' E 030°01'3 7.5
2018-Aug-05 10:00N 43°20' E 029°60'4 7.6
2018-Aug-05 09:30N 43°16' E 029°58'4 7.6
2018-Aug-05 09:00N 43°13' E 029°57'4 7.6
2018-Aug-05 08:30N 43°09' E 029°55'4 7.6
2018-Aug-05 08:00N 43°05' E 029°54'4 7.6
2018-Aug-05 07:30N 43°02' E 029°53'4 7.6
2018-Aug-05 07:00N 42°58' E 029°51'4 7.6
2018-Aug-05 06:30N 42°54' E 029°50'4 7.5
2018-Aug-05 06:00N 42°51' E 029°48'4 7.5
2018-Aug-05 05:30N 42°47' E 029°47'4 7.5
2018-Aug-05 05:00N 42°44' E 029°45'14 7.7
2018-Aug-05 03:14N 42°31' E 029°40'2 7.8
2018-Aug-05 03:00N 42°29' E 029°40'4 7.8
2018-Aug-05 02:30N 42°25' E 029°38'4 7.9
2018-Aug-05 01:58N 42°21' E 029°37'4 7.9
2018-Aug-05 01:30N 42°17' E 029°35'4 7.9
2018-Aug-05 01:00N 42°14' E 029°34'12 7.7
2018-Aug-04 23:29N 42°02' E 029°30'  
Track history (hours):
 
Tides and Currents Weather Stations Pressure Air Temp Water Temp Dewpoint Dewpoint Depression Visibility Wind Speed Wind Dir Waves Ship Positions

Afanasiy Matyushenko

Last reported at 2018-Aug-13 23:00 UTC. Time now 2018-Aug-16 20:18 UTC.
Position N 43°58' E 032°53'.

Length 114 m; draft 4 m.

Type: Cargo ship. MMSI: 272076000.

Date/timePositionNaut miles runAvg speedWind from/ knotsBaromVisibWave heightAir tempDewpointWater temp
2018-Aug-13 23:00N 43°58' E 032°53'4 7.2
2018-Aug-13 22:30N 44°01' E 032°50'4 7.1
2018-Aug-13 21:58N 44°04' E 032°46'4 7.2
2018-Aug-13 21:28N 44°07' E 032°43'4 7.2
2018-Aug-13 20:58N 44°09' E 032°39'3 7.2
2018-Aug-13 20:29N 44°11' E 032°35'4 7.2
2018-Aug-13 20:00N 44°14' E 032°32'7 7.5
2018-Aug-13 19:06N 44°18' E 032°25'1 7.5
2018-Aug-13 19:00N 44°19' E 032°24'4 7.5
2018-Aug-13 18:25N 44°22' E 032°20'3 7.4
2018-Aug-13 17:59N 44°24' E 032°17'4 7.4
2018-Aug-13 17:31N 44°26' E 032°13'5 7.6
2018-Aug-13 16:54N 44°29' E 032°08'3 7.5
2018-Aug-13 16:30N 44°31' E 032°05'32 7.8
2018-Aug-13 12:24N 44°53' E 031°32'3 7.5
2018-Aug-13 12:00N 44°55' E 031°29'4 7.4
2018-Aug-13 11:30N 44°58' E 031°25'3 7.0
2018-Aug-13 11:00N 44°60' E 031°21'4 7.3
2018-Aug-13 10:29N 45°04' E 031°20'4 7.3
2018-Aug-13 10:00N 45°07' E 031°19'4 7.4
2018-Aug-13 09:30N 45°11' E 031°18'5 7.5
2018-Aug-13 08:50N 45°16' E 031°17'3 7.6
2018-Aug-13 08:30N 45°18' E 031°17'4 7.7
2018-Aug-13 07:59N 45°22' E 031°15'4 7.7
2018-Aug-13 07:30N 45°26' E 031°14'4 7.6
2018-Aug-13 07:00N 45°29' E 031°13'4 7.6
2018-Aug-13 06:27N 45°33' E 031°12'3 7.6
2018-Aug-13 06:00N 45°37' E 031°11'4 7.6
2018-Aug-13 05:30N 45°41' E 031°11'4 7.4
2018-Aug-13 05:00N 45°44' E 031°11'4 7.5
2018-Aug-13 04:30N 45°48' E 031°10'4 7.7
2018-Aug-13 04:00N 45°52' E 031°09'4 7.5
2018-Aug-13 03:30N 45°56' E 031°08'11 7.6
2018-Aug-13 02:02N 46°07' E 031°06'1 7.7
2018-Aug-13 01:56N 46°07' E 031°05'3 7.7
2018-Aug-13 01:30N 46°09' E 031°02'4 7.7
2018-Aug-13 01:00N 46°12' E 030°58'4 7.6
2018-Aug-13 00:30N 46°15' E 030°54'4 7.4
2018-Aug-13 00:00N 46°19' E 030°55'4 7.4
2018-Aug-12 23:30N 46°22' E 030°55'4 7.4
2018-Aug-12 23:00N 46°26' E 030°55'4 7.3
2018-Aug-12 22:30N 46°30' E 030°55'3 6.3
2018-Aug-12 22:00N 46°33' E 030°57'3 6.8
2018-Aug-12 21:30N 46°34' E 031°01'3 5.5
2018-Aug-12 21:01N 46°35' E 031°05'3 5.9
2018-Aug-12 20:30N 46°35' E 031°09'3 6.4
2018-Aug-12 20:00N 46°35' E 031°14'3 6.2
2018-Aug-12 19:30N 46°35' E 031°18'3 6.3
2018-Aug-12 19:00N 46°35' E 031°23'3 6.2
2018-Aug-12 18:30N 46°35' E 031°27'3 5.5
2018-Aug-12 18:00N 46°35' E 031°31'3 5.8
2018-Aug-12 17:30N 46°35' E 031°35'3 6.3
2018-Aug-12 17:00N 46°36' E 031°40'3 6.6
2018-Aug-12 16:30N 46°36' E 031°45'3 6.5
2018-Aug-12 16:00N 46°35' E 031°49'3 6.8
2018-Aug-12 15:30N 46°34' E 031°54'4 7.1
2018-Aug-12 15:00N 46°33' E 031°59'4 7.1
2018-Aug-12 14:30N 46°32' E 032°04'144 4.4
2018-Aug-11 06:03N 47°43' E 035°08'0 7.4
2018-Aug-11 06:00N 47°43' E 035°08'3 6.6
2018-Aug-11 05:30N 47°46' E 035°09'3 5.9
2018-Aug-11 05:00N 47°49' E 035°09'3 6.0
2018-Aug-11 04:30N 47°51' E 035°05'1 1.7
2018-Aug-11 03:52N 47°52' E 035°06'0 0.0
2018-Aug-11 03:30N 47°52' E 035°06'1 1.7
2018-Aug-11 03:00N 47°53' E 035°06'1 1.4
2018-Aug-11 02:29N 47°53' E 035°07'0 0.0
2018-Aug-11 01:59N 47°53' E 035°07'0 0.0
2018-Aug-11 01:29N 47°53' E 035°07'0 0.0
2018-Aug-11 00:59N 47°53' E 035°07'0 0.0
2018-Aug-11 00:29N 47°53' E 035°07'0 0.0
2018-Aug-10 23:59N 47°53' E 035°07'0 0.0
2018-Aug-10 23:29N 47°53' E 035°07'0 0.0
2018-Aug-10 22:59N 47°53' E 035°07'0 0.0
2018-Aug-10 22:29N 47°53' E 035°07'0 0.0
2018-Aug-10 21:59N 47°53' E 035°07'0 0.0
2018-Aug-10 21:29N 47°53' E 035°07'0 0.0
2018-Aug-10 20:53N 47°53' E 035°07'0 0.0
2018-Aug-10 20:23N 47°53' E 035°07'0 0.0
2018-Aug-10 19:59N 47°53' E 035°07'0 0.0
2018-Aug-10 19:29N 47°53' E 035°07'0 0.0
2018-Aug-10 18:59N 47°53' E 035°07'0 0.0
2018-Aug-10 18:29N 47°53' E 035°07'0 0.0
2018-Aug-10 17:53N 47°53' E 035°07'0 0.0
2018-Aug-10 17:29N 47°53' E 035°07'0 0.0
2018-Aug-10 16:59N 47°53' E 035°07'0 0.0
2018-Aug-10 16:29N 47°53' E 035°07'0 0.0
2018-Aug-10 15:59N 47°53' E 035°07'0 0.0
2018-Aug-10 15:29N 47°53' E 035°07'0 0.0
2018-Aug-10 14:59N 47°53' E 035°07'0 0.0
2018-Aug-10 14:29N 47°53' E 035°07'0 0.0
2018-Aug-10 13:59N 47°53' E 035°07'0 0.0
2018-Aug-10 13:29N 47°53' E 035°07'0 0.0
2018-Aug-10 12:59N 47°53' E 035°07'0 0.0
2018-Aug-10 12:29N 47°53' E 035°07'0 0.0
2018-Aug-10 11:59N 47°53' E 035°07'0 0.0
2018-Aug-10 11:23N 47°53' E 035°07'0 0.0
2018-Aug-10 10:53N 47°53' E 035°07'0 0.0
2018-Aug-10 10:29N 47°53' E 035°07'0 0.0
2018-Aug-10 09:59N 47°53' E 035°07'0 0.0
2018-Aug-10 09:29N 47°53' E 035°07'0 0.0
2018-Aug-10 08:59N 47°53' E 035°07'0 0.0
2018-Aug-10 08:29N 47°53' E 035°07'0 0.0
2018-Aug-10 07:59N 47°53' E 035°07'0 0.0
2018-Aug-10 07:29N 47°53' E 035°07'0 0.0
2018-Aug-10 06:59N 47°53' E 035°07'0 0.0
2018-Aug-10 06:29N 47°53' E 035°07'0 0.0
2018-Aug-10 05:59N 47°53' E 035°07'0 0.0
2018-Aug-10 05:29N 47°53' E 035°07'0 0.0
2018-Aug-10 04:59N 47°53' E 035°07'0 0.0
2018-Aug-10 04:29N 47°53' E 035°07'0 0.0
2018-Aug-10 03:59N 47°53' E 035°07'0 0.0
2018-Aug-10 03:29N 47°53' E 035°07'0 0.0
2018-Aug-10 02:59N 47°53' E 035°07'0 0.0
2018-Aug-10 02:23N 47°53' E 035°07'0 0.0
2018-Aug-10 01:59N 47°53' E 035°07'0 0.0
2018-Aug-10 01:29N 47°53' E 035°07'0 0.0
2018-Aug-10 00:59N 47°53' E 035°07'0 0.0
2018-Aug-10 00:29N 47°53' E 035°07'0 0.0
2018-Aug-09 23:53N 47°53' E 035°07'0 0.0
2018-Aug-09 23:29N 47°53' E 035°07'0 0.0
2018-Aug-09 22:59N 47°53' E 035°07'0 0.0
2018-Aug-09 22:29N 47°53' E 035°07'0 0.0
2018-Aug-09 21:59N 47°53' E 035°07'0 0.0
2018-Aug-09 21:23N 47°53' E 035°07'0 0.0
2018-Aug-09 20:59N 47°53' E 035°07'0 0.0
2018-Aug-09 20:29N 47°53' E 035°07'0 0.0
2018-Aug-09 19:59N 47°53' E 035°07'0 0.0
2018-Aug-09 19:29N 47°53' E 035°07'0 0.0
2018-Aug-09 18:59N 47°53' E 035°07'0 0.0
2018-Aug-09 18:29N 47°53' E 035°07'0 0.0
2018-Aug-09 17:59N 47°53' E 035°07'0 0.0
2018-Aug-09 17:29N 47°53' E 035°07'0 0.0
2018-Aug-09 16:59N 47°53' E 035°07'0 0.0
2018-Aug-09 16:29N 47°53' E 035°07'0 0.0
2018-Aug-09 15:59N 47°53' E 035°07'0 0.0
2018-Aug-09 15:29N 47°53' E 035°07'0 0.0
2018-Aug-09 14:53N 47°53' E 035°07'0 0.0
2018-Aug-09 14:29N 47°53' E 035°07'0 0.0
2018-Aug-09 13:59N 47°53' E 035°07'0 0.0
2018-Aug-09 13:29N 47°53' E 035°07'0 0.0
2018-Aug-09 12:53N 47°53' E 035°07'0 0.0
2018-Aug-09 12:29N 47°53' E 035°07'0 0.0
2018-Aug-09 11:59N 47°53' E 035°07'0 0.0
2018-Aug-09 11:29N 47°53' E 035°07'0 0.0
2018-Aug-09 10:59N 47°53' E 035°07'0 0.0
2018-Aug-09 10:29N 47°53' E 035°07'0 0.0
2018-Aug-09 09:59N 47°53' E 035°07'0 0.0
2018-Aug-09 09:29N 47°53' E 035°07'0 0.0
2018-Aug-09 08:53N 47°53' E 035°07'0 0.0
2018-Aug-09 08:29N 47°53' E 035°07'0 0.0
2018-Aug-09 07:59N 47°53' E 035°07'0 0.0
2018-Aug-09 07:29N 47°53' E 035°07'0 0.0
2018-Aug-09 06:59N 47°53' E 035°07'0 0.0
2018-Aug-09 06:29N 47°53' E 035°07'0 0.0
2018-Aug-09 05:59N 47°53' E 035°07'0 0.0
2018-Aug-09 05:29N 47°53' E 035°07'0 0.0
2018-Aug-09 04:59N 47°53' E 035°07'0 0.0
2018-Aug-09 04:29N 47°53' E 035°07'0 0.2
2018-Aug-09 03:59N 47°53' E 035°07'0 0.0
2018-Aug-09 03:29N 47°53' E 035°07'0 0.0
2018-Aug-09 02:59N 47°53' E 035°07'0 0.0
2018-Aug-09 02:29N 47°53' E 035°07'0 0.0
2018-Aug-09 01:59N 47°53' E 035°07'0 0.0
2018-Aug-09 01:29N 47°53' E 035°07'0 0.0
2018-Aug-09 00:59N 47°53' E 035°07'0 0.0
2018-Aug-09 00:29N 47°53' E 035°07'0 0.0
2018-Aug-08 23:59N 47°53' E 035°07'0 0.0
2018-Aug-08 23:29N 47°53' E 035°07'0 0.0
2018-Aug-08 22:59N 47°53' E 035°07'0 0.0
2018-Aug-08 22:29N 47°53' E 035°07'0 0.0
2018-Aug-08 21:59N 47°53' E 035°07'0 0.0
2018-Aug-08 21:29N 47°53' E 035°07'0 0.0
2018-Aug-08 20:59N 47°53' E 035°07'0 0.0
2018-Aug-08 20:29N 47°53' E 035°07'0 0.0
2018-Aug-08 19:53N 47°53' E 035°07'0 0.0
2018-Aug-08 19:29N 47°53' E 035°07'0 0.0
2018-Aug-08 18:59N 47°53' E 035°07'0 0.0
2018-Aug-08 18:29N 47°53' E 035°07'0 0.0
2018-Aug-08 17:59N 47°53' E 035°07'0 0.0
2018-Aug-08 17:31N 47°53' E 035°07'0 0.0
2018-Aug-08 17:00N 47°53' E 035°07'0 0.0
2018-Aug-08 16:31N 47°53' E 035°07'1 2.4
2018-Aug-08 16:00N 47°52' E 035°06'0 0.0
2018-Aug-08 15:30N 47°52' E 035°06'0 0.4
2018-Aug-08 14:59N 47°52' E 035°05'2 4.1
2018-Aug-08 14:31N 47°50' E 035°06'2 4.8
2018-Aug-08 14:01N 47°48' E 035°09'0 0.1
2018-Aug-08 13:10N 47°48' E 035°09'0 0.0
2018-Aug-08 12:58N 47°48' E 035°09'0 0.0
2018-Aug-08 12:28N 47°48' E 035°09'0 0.0
2018-Aug-08 12:00N 47°48' E 035°09'0 0.0
2018-Aug-08 11:30N 47°48' E 035°09'0 0.0
2018-Aug-08 11:00N 47°48' E 035°09'0 0.0
2018-Aug-08 10:30N 47°48' E 035°09'0 0.0
2018-Aug-08 10:00N 47°48' E 035°09'0 0.0
2018-Aug-08 09:30N 47°48' E 035°09'0 0.0
2018-Aug-08 09:00N 47°48' E 035°09'0 0.0
2018-Aug-08 08:30N 47°48' E 035°09'0 0.0
2018-Aug-08 08:00N 47°48' E 035°09'0 0.0
2018-Aug-08 07:30N 47°48' E 035°09'0 0.0
2018-Aug-08 07:00N 47°48' E 035°09'2 3.2
2018-Aug-08 06:30N 47°47' E 035°09'4 6.7
2018-Aug-08 05:58N 47°43' E 035°09'137 4.1
2018-Aug-06 20:59N 46°33' E 032°16'2 5.1
2018-Aug-06 20:30N 46°33' E 032°13'2 3.8
2018-Aug-06 20:00N 46°32' E 032°10'2 4.1
2018-Aug-06 19:30N 46°32' E 032°07'2 4.8
2018-Aug-06 19:00N 46°32' E 032°04'4 7.1
2018-Aug-06 18:30N 46°33' E 031°59'4 7.6
2018-Aug-06 18:00N 46°34' E 031°54'4 7.5
2018-Aug-06 17:30N 46°35' E 031°48'4 7.6
2018-Aug-06 17:00N 46°36' E 031°43'4 7.6
2018-Aug-06 16:30N 46°35' E 031°37'4 7.7
2018-Aug-06 16:00N 46°35' E 031°32'4 6.4
2018-Aug-06 15:27N 46°35' E 031°27'4 7.8
2018-Aug-06 14:59N 46°35' E 031°22'4 8.2
2018-Aug-06 14:30N 46°35' E 031°16'4 8.4
2018-Aug-06 14:00N 46°35' E 031°10'4 8.4
2018-Aug-06 13:30N 46°34' E 031°04'2 4.8
2018-Aug-06 13:00N 46°33' E 031°01'3 5.5
2018-Aug-06 12:30N 46°33' E 030°57'3 6.7
2018-Aug-06 12:00N 46°29' E 030°57'3 6.4
2018-Aug-06 11:30N 46°26' E 030°57'3 6.4
2018-Aug-06 11:00N 46°23' E 030°57'4 7.2
2018-Aug-06 10:30N 46°19' E 030°57'3 6.9
2018-Aug-06 10:00N 46°16' E 030°59'4 7.3
2018-Aug-06 09:30N 46°13' E 031°02'4 7.2
2018-Aug-06 09:00N 46°11' E 031°06'15 7.1
2018-Aug-06 06:49N 45°55' E 031°02'3 7.8
2018-Aug-06 06:27N 45°53' E 031°01'4 7.5
2018-Aug-06 05:57N 45°49' E 030°60'6 7.8
2018-Aug-06 05:10N 45°43' E 030°57'1 8.0
2018-Aug-06 04:59N 45°42' E 030°57'4 8.1
2018-Aug-06 04:30N 45°38' E 030°55'5 8.0
2018-Aug-06 03:52N 45°33' E 030°53'3 7.8
2018-Aug-06 03:30N 45°30' E 030°52'4 8.0
2018-Aug-06 03:00N 45°27' E 030°50'4 8.0
2018-Aug-06 02:30N 45°23' E 030°49'4 8.0
2018-Aug-06 02:00N 45°19' E 030°47'4 8.0
2018-Aug-06 01:30N 45°15' E 030°46'4 7.8
2018-Aug-06 01:00N 45°11' E 030°44'4 7.9
2018-Aug-06 00:30N 45°07' E 030°43'4 8.0
2018-Aug-06 00:00N 45°04' E 030°41'4 7.8
2018-Aug-05 23:29N 44°60' E 030°39'4 7.9
2018-Aug-05 23:00N 44°56' E 030°38'4 7.9
2018-Aug-05 22:30N 44°52' E 030°36'4 8.0
2018-Aug-05 22:00N 44°48' E 030°35'4 8.0
2018-Aug-05 21:30N 44°45' E 030°33'4 8.0
2018-Aug-05 21:00N 44°41' E 030°32'4 8.0
2018-Aug-05 20:30N 44°37' E 030°30'4 7.9
2018-Aug-05 20:00N 44°33' E 030°29'4 7.9
2018-Aug-05 19:30N 44°29' E 030°27'4 7.8
2018-Aug-05 19:00N 44°26' E 030°26'4 8.0
2018-Aug-05 18:30N 44°22' E 030°24'4 8.0
2018-Aug-05 18:00N 44°18' E 030°23'4 7.9
2018-Aug-05 17:30N 44°14' E 030°21'4 7.8
2018-Aug-05 17:00N 44°10' E 030°20'4 7.8
2018-Aug-05 16:30N 44°07' E 030°18'4 7.7
2018-Aug-05 16:00N 44°03' E 030°17'4 7.6
2018-Aug-05 15:30N 43°59' E 030°15'4 7.5
2018-Aug-05 14:59N 43°55' E 030°14'4 7.4
2018-Aug-05 14:30N 43°52' E 030°12'7 7.4
2018-Aug-05 13:30N 43°45' E 030°10'4 7.4
2018-Aug-05 13:00N 43°41' E 030°08'4 7.4
2018-Aug-05 12:30N 43°38' E 030°07'4 7.4
2018-Aug-05 12:00N 43°34' E 030°05'4 7.4
2018-Aug-05 11:30N 43°31' E 030°04'4 7.5
2018-Aug-05 11:00N 43°27' E 030°03'4 7.5
2018-Aug-05 10:28N 43°23' E 030°01'3 7.5
2018-Aug-05 10:00N 43°20' E 029°60'4 7.6
2018-Aug-05 09:30N 43°16' E 029°58'4 7.6
2018-Aug-05 09:00N 43°13' E 029°57'4 7.6
2018-Aug-05 08:30N 43°09' E 029°55'4 7.6
2018-Aug-05 08:00N 43°05' E 029°54'4 7.6
2018-Aug-05 07:30N 43°02' E 029°53'4 7.6
2018-Aug-05 07:00N 42°58' E 029°51'4 7.6
2018-Aug-05 06:30N 42°54' E 029°50'4 7.5
2018-Aug-05 06:00N 42°51' E 029°48'4 7.5
2018-Aug-05 05:30N 42°47' E 029°47'4 7.5
2018-Aug-05 05:00N 42°44' E 029°45'14 7.7
2018-Aug-05 03:14N 42°31' E 029°40'2 7.8
2018-Aug-05 03:00N 42°29' E 029°40'4 7.8
2018-Aug-05 02:30N 42°25' E 029°38'4 7.9
2018-Aug-05 01:58N 42°21' E 029°37'4 7.9
2018-Aug-05 01:30N 42°17' E 029°35'4 7.9
2018-Aug-05 01:00N 42°14' E 029°34'12 7.7
2018-Aug-04 23:29N 42°02' E 029°30'  

Dump ship's entire track history